createdAt,value
2018-12-12T00:01:48.586Z,162.43
2018-12-12T00:04:19.839Z,165.53
2018-12-12T00:06:49.334Z,172.67
2018-12-12T00:09:18.435Z,162.53
2018-12-12T00:11:47.626Z,161.27
2018-12-12T00:14:16.650Z,161.10
2018-12-12T00:16:45.745Z,159.13
2018-12-12T00:19:14.799Z,224.23
2018-12-12T00:21:43.844Z,225.53
2018-12-12T00:24:14.184Z,227.20
2018-12-12T00:26:43.186Z,181.07
2018-12-12T00:29:12.181Z,173.33
2018-12-12T00:31:41.514Z,167.00
2018-12-12T00:34:10.746Z,182.83
2018-12-12T00:36:39.882Z,174.40
2018-12-12T00:39:09.036Z,167.43
2018-12-12T00:41:38.295Z,174.37
2018-12-12T00:44:07.406Z,182.73
2018-12-12T00:46:36.539Z,166.23
2018-12-12T00:49:05.557Z,150.90
2018-12-12T00:51:34.883Z,155.50
2018-12-12T00:54:04.065Z,160.23
2018-12-12T00:56:33.139Z,132.30
2018-12-12T00:59:02.340Z,156.53
2018-12-12T01:01:31.424Z,145.13
2018-12-12T01:04:00.589Z,149.60
2018-12-12T01:06:29.794Z,148.73
2018-12-12T01:08:58.953Z,142.27
2018-12-12T01:11:33.593Z,153.17
2018-12-12T01:14:02.643Z,152.10
2018-12-12T01:16:31.678Z,152.17
2018-12-12T01:19:00.667Z,164.00
2018-12-12T01:21:29.958Z,165.90
2018-12-12T01:23:58.986Z,153.97
2018-12-12T01:26:28.241Z,144.77
2018-12-12T01:28:57.307Z,153.40
2018-12-12T01:31:26.303Z,164.13
2018-12-12T01:33:55.289Z,159.53
2018-12-12T01:36:24.273Z,154.67
2018-12-12T01:38:53.345Z,154.07
2018-12-12T01:41:22.336Z,158.80
2018-12-12T01:43:51.369Z,152.23
2018-12-12T01:46:20.609Z,153.77
2018-12-12T01:48:49.700Z,143.10
2018-12-12T01:51:19.059Z,149.13
2018-12-12T01:53:48.616Z,141.27
2018-12-12T01:56:17.613Z,144.33
2018-12-12T01:58:46.736Z,141.33
2018-12-12T02:01:15.802Z,142.27
2018-12-12T02:03:44.854Z,133.13
2018-12-12T02:06:14.002Z,136.77
2018-12-12T02:08:43.115Z,144.47
2018-12-12T02:11:12.241Z,149.00
2018-12-12T02:13:41.363Z,140.43
2018-12-12T02:16:10.433Z,161.27
2018-12-12T02:18:41.591Z,147.00
2018-12-12T02:21:10.605Z,156.03
2018-12-12T02:23:39.661Z,159.93
2018-12-12T02:26:08.790Z,161.13
2018-12-12T02:28:37.821Z,150.77
2018-12-12T02:31:07.021Z,149.97
2018-12-12T02:33:36.183Z,154.33
2018-12-12T02:36:05.221Z,147.47
2018-12-12T02:38:34.233Z,145.43
2018-12-12T02:41:03.240Z,144.83
2018-12-12T02:43:32.298Z,156.50
2018-12-12T02:46:01.362Z,164.27
2018-12-12T02:48:30.418Z,170.90
2018-12-12T02:50:59.393Z,164.63
2018-12-12T02:53:28.416Z,180.27
2018-12-12T02:55:57.436Z,159.37
2018-12-12T02:58:26.517Z,184.37
2018-12-12T03:00:55.619Z,194.37
2018-12-12T03:03:24.625Z,175.00
2018-12-12T03:05:53.709Z,180.20
2018-12-12T03:08:22.692Z,166.60
2018-12-12T03:10:51.804Z,154.00
2018-12-12T03:13:20.803Z,165.63
2018-12-12T03:15:49.852Z,162.70
2018-12-12T03:18:18.989Z,154.03
2018-12-12T03:20:47.993Z,145.23
2018-12-12T03:23:17.039Z,138.00
2018-12-12T03:25:46.019Z,141.83
2018-12-12T03:28:15.008Z,142.20
2018-12-12T03:30:44.040Z,140.03
2018-12-12T03:33:13.058Z,133.03
2018-12-12T03:35:42.255Z,132.73
2018-12-12T03:38:11.241Z,141.23
2018-12-12T03:40:40.813Z,127.97
2018-12-12T03:43:09.947Z,129.67
2018-12-12T03:45:38.996Z,140.70
2018-12-12T03:48:08.025Z,132.30
2018-12-12T03:50:37.034Z,135.97
2018-12-12T03:53:06.040Z,137.00
2018-12-12T03:55:35.049Z,149.50
2018-12-12T03:58:04.044Z,161.97
2018-12-12T04:00:33.145Z,172.13
2018-12-12T04:03:02.180Z,166.03
2018-12-12T04:05:31.210Z,168.07
2018-12-12T04:08:00.299Z,176.77
2018-12-12T04:10:29.360Z,168.33
2018-12-12T04:12:58.403Z,158.97
2018-12-12T04:15:27.413Z,146.90
2018-12-12T04:17:56.432Z,156.57
2018-12-12T04:20:25.452Z,177.17
2018-12-12T04:22:58.359Z,166.27
2018-12-12T04:25:27.882Z,145.17
2018-12-12T04:27:56.906Z,161.57
2018-12-12T04:30:25.984Z,152.43
2018-12-12T04:32:55.052Z,173.90
2018-12-12T04:35:24.126Z,150.93
2018-12-12T04:37:53.246Z,153.17
2018-12-12T04:40:22.349Z,144.13
2018-12-12T04:42:51.322Z,151.23
2018-12-12T04:45:20.333Z,148.33
2018-12-12T04:47:50.937Z,161.77
2018-12-12T04:50:20.154Z,175.23
2018-12-12T04:52:49.232Z,152.70
2018-12-12T04:55:18.257Z,165.37
2018-12-12T04:57:47.261Z,183.67
2018-12-12T05:00:16.360Z,181.07
2018-12-12T05:02:45.829Z,176.53
2018-12-12T05:05:14.825Z,174.53
2018-12-12T05:07:43.854Z,180.27
2018-12-12T05:10:12.895Z,179.17
2018-12-12T05:12:42.071Z,165.83
2018-12-12T05:15:11.395Z,176.33
2018-12-12T05:17:40.433Z,175.73
2018-12-12T05:20:09.422Z,173.97
2018-12-12T05:22:38.981Z,162.47
2018-12-12T05:25:08.032Z,192.73
2018-12-12T05:27:37.076Z,177.47
2018-12-12T05:30:06.270Z,176.27
2018-12-12T05:32:35.304Z,164.43
2018-12-12T05:35:04.353Z,137.17
2018-12-12T05:37:33.486Z,141.17
2018-12-12T05:40:02.550Z,156.20
2018-12-12T05:42:32.105Z,137.00
2018-12-12T05:45:01.148Z,153.97
2018-12-12T05:47:30.242Z,138.63
2018-12-12T05:49:59.344Z,137.27
2018-12-12T05:52:28.472Z,136.10
2018-12-12T05:54:57.467Z,144.90
2018-12-12T05:57:26.541Z,161.83
2018-12-12T05:59:55.667Z,144.00
2018-12-12T06:02:24.709Z,132.60
2018-12-12T06:04:53.881Z,143.63
2018-12-12T06:07:22.926Z,138.63
2018-12-12T06:09:51.986Z,133.00
2018-12-12T06:12:21.018Z,141.67
2018-12-12T06:14:50.228Z,134.57
2018-12-12T06:17:19.317Z,112.57
2018-12-12T06:19:48.377Z,115.10
2018-12-12T06:22:17.845Z,121.90
2018-12-12T06:24:46.933Z,119.50
2018-12-12T06:27:15.954Z,125.17
2018-12-12T06:29:44.997Z,135.10
2018-12-12T06:32:14.050Z,115.37
2018-12-12T06:34:43.199Z,147.93
2018-12-12T06:37:12.353Z,246.10
2018-12-12T06:39:41.361Z,166.10
2018-12-12T06:42:10.382Z,146.57
2018-12-12T06:44:39.437Z,127.20
2018-12-12T06:47:08.485Z,131.03
2018-12-12T06:49:37.598Z,118.50
2018-12-12T06:52:06.721Z,108.23
2018-12-12T06:54:35.853Z,116.20
2018-12-12T06:57:04.836Z,115.43
2018-12-12T06:59:33.831Z,128.60
2018-12-12T07:02:02.971Z,110.43
2018-12-12T07:04:32.357Z,120.70
2018-12-12T07:07:01.776Z,111.13
2018-12-12T07:09:30.800Z,199.57
2018-12-12T07:11:59.814Z,224.13
2018-12-12T07:14:28.890Z,189.23
2018-12-12T07:16:57.905Z,133.43
2018-12-12T07:19:26.965Z,115.13
2018-12-12T07:21:56.172Z,107.63
2018-12-12T07:24:25.291Z,106.20
2018-12-12T07:26:54.352Z,105.10
2018-12-12T07:29:23.359Z,102.37
2018-12-12T07:31:52.429Z,124.37
2018-12-12T07:34:21.521Z,111.60
2018-12-12T07:36:50.557Z,108.73
2018-12-12T07:39:19.583Z,103.97
2018-12-12T07:41:48.981Z,108.50
2018-12-12T07:44:20.073Z,96.80
2018-12-12T07:47:06.006Z,93.17
2018-12-12T07:49:37.505Z,98.57
2018-12-12T07:52:13.144Z,105.67
2018-12-12T07:54:42.241Z,96.73
2018-12-12T07:57:11.434Z,98.20
2018-12-12T07:59:40.457Z,91.17
2018-12-12T08:02:09.521Z,88.70
2018-12-12T08:04:38.503Z,91.33
2018-12-12T08:07:07.632Z,93.70
2018-12-12T08:09:36.733Z,104.87
2018-12-12T08:12:05.840Z,105.83
2018-12-12T08:14:34.885Z,91.03
2018-12-12T08:17:03.861Z,99.83
2018-12-12T08:19:33.015Z,107.57
2018-12-12T08:22:02.057Z,127.77
2018-12-12T08:24:32.183Z,99.10
2018-12-12T08:27:01.303Z,98.20
2018-12-12T08:29:30.445Z,82.97
2018-12-12T08:34:25.085Z,91.90
2018-12-12T08:44:12.187Z,81.37
2018-12-12T08:46:41.528Z,89.43
2018-12-12T08:49:10.733Z,79.50
2018-12-12T08:51:39.741Z,94.20
2018-12-12T08:54:08.904Z,93.07
2018-12-12T08:56:37.910Z,98.30
2018-12-12T08:59:07.078Z,84.03
2018-12-12T09:01:36.538Z,108.23
2018-12-12T09:04:05.559Z,104.47
2018-12-12T09:06:35.743Z,100.77
2018-12-12T09:09:06.702Z,88.73
2018-12-12T09:11:37.730Z,90.97
2018-12-12T09:14:06.706Z,90.90
2018-12-12T09:16:35.933Z,86.50
2018-12-12T09:19:05.122Z,88.30
2018-12-12T09:21:35.795Z,88.50
2018-12-12T09:24:05.181Z,234.70
2018-12-12T09:26:35.253Z,309.23
2018-12-12T09:29:04.370Z,177.83
2018-12-12T09:31:35.494Z,84.00
2018-12-12T09:34:06.486Z,220.47
2018-12-12T09:36:35.605Z,88.47
2018-12-12T09:39:07.660Z,83.03
2018-12-12T09:41:38.798Z,148.20
2018-12-12T09:44:09.101Z,578.97
2018-12-12T09:46:38.231Z,642.80
2018-12-12T09:49:07.444Z,738.67
2018-12-12T09:51:38.497Z,103.10
2018-12-12T09:54:09.521Z,224.03
2018-12-12T09:56:38.717Z,92.13
2018-12-12T09:59:07.830Z,87.70
2018-12-12T10:01:36.809Z,523.23
2018-12-12T10:04:05.813Z,92.47
2018-12-12T10:06:34.937Z,372.13
2018-12-12T10:09:05.509Z,431.40
2018-12-12T10:11:36.513Z,81.73
2018-12-12T10:14:05.578Z,64.37
2018-12-12T10:16:34.694Z,128.00
2018-12-12T10:19:03.770Z,365.40
2018-12-12T10:21:32.831Z,207.97
2018-12-12T10:24:02.937Z,455.20
2018-12-12T10:26:32.092Z,589.30
2018-12-12T10:29:01.309Z,441.80
2018-12-12T10:31:30.544Z,136.77
2018-12-12T10:33:59.484Z,155.20
2018-12-12T10:36:28.497Z,181.87
2018-12-12T10:38:57.471Z,72.93
2018-12-12T10:41:26.463Z,71.90
2018-12-12T10:43:55.587Z,85.47
2018-12-12T10:46:24.588Z,181.83
2018-12-12T10:48:55.020Z,260.80
2018-12-12T10:51:24.025Z,303.77
2018-12-12T10:53:53.115Z,361.30
2018-12-12T10:56:22.221Z,357.90
2018-12-12T10:58:51.343Z,269.30
2018-12-12T11:01:25.669Z,201.67
2018-12-12T11:03:54.681Z,454.20
2018-12-12T11:06:23.709Z,251.53
2018-12-12T11:08:52.839Z,199.73
2018-12-12T11:11:21.842Z,66.57
2018-12-12T11:13:50.939Z,302.67
2018-12-12T11:16:19.952Z,200.53
2018-12-12T11:18:48.982Z,117.13
2018-12-12T11:21:18.097Z,127.30
2018-12-12T11:23:47.085Z,98.50
2018-12-12T11:26:16.107Z,71.67
2018-12-12T11:28:45.198Z,72.80
2018-12-12T11:31:14.209Z,226.83
2018-12-12T11:33:43.283Z,190.60
2018-12-12T11:36:12.274Z,160.47
2018-12-12T11:38:41.288Z,125.17
2018-12-12T11:41:10.318Z,103.47
2018-12-12T11:43:39.414Z,136.20
2018-12-12T11:46:08.483Z,150.87
2018-12-12T11:48:37.525Z,74.40
2018-12-12T11:51:06.647Z,103.30
2018-12-12T11:53:35.717Z,57.00
2018-12-12T11:56:04.778Z,115.83
2018-12-12T11:58:33.853Z,67.93
2018-12-12T12:01:03.696Z,63.07
2018-12-12T12:03:34.792Z,107.17
2018-12-12T12:06:04.070Z,203.13
2018-12-12T12:08:33.169Z,60.70
2018-12-12T12:11:02.148Z,71.40
2018-12-12T12:13:33.115Z,100.33
2018-12-12T12:16:02.126Z,72.60
2018-12-12T12:18:31.095Z,78.97
2018-12-12T12:21:00.121Z,83.03
2018-12-12T12:23:29.218Z,62.70
2018-12-12T12:25:58.294Z,88.03
2018-12-12T12:28:27.378Z,82.80
2018-12-12T12:30:56.646Z,64.93
2018-12-12T12:33:25.685Z,46.27
2018-12-12T12:35:54.709Z,61.90
2018-12-12T12:38:24.153Z,57.93
2018-12-12T12:40:53.174Z,47.07
2018-12-12T12:43:22.356Z,40.43
2018-12-12T12:45:51.489Z,47.80
2018-12-12T12:48:20.564Z,40.43
2018-12-12T12:50:49.561Z,44.97
2018-12-12T12:53:18.636Z,56.80
2018-12-12T12:55:47.610Z,60.33
2018-12-12T12:58:16.710Z,55.47
2018-12-12T13:00:45.729Z,51.00
2018-12-12T13:03:14.898Z,41.57
2018-12-12T13:05:43.905Z,57.80
2018-12-12T13:08:12.934Z,49.97
2018-12-12T13:10:42.252Z,47.97
2018-12-12T13:13:11.697Z,45.87
2018-12-12T13:15:41.117Z,41.43
2018-12-12T13:18:10.385Z,45.67
2018-12-12T13:20:39.496Z,43.60
2018-12-12T13:23:08.628Z,57.27
2018-12-12T13:25:37.943Z,42.57
2018-12-12T13:28:07.051Z,47.07
2018-12-12T13:30:36.039Z,42.60
2018-12-12T13:33:05.057Z,51.83
2018-12-12T13:35:34.073Z,53.00
2018-12-12T13:38:03.126Z,43.67
2018-12-12T13:40:32.157Z,51.93
2018-12-12T13:43:01.252Z,55.17
2018-12-12T13:45:30.289Z,56.23
2018-12-12T13:48:00.286Z,49.23
2018-12-12T13:50:29.307Z,63.93
2018-12-12T13:52:58.378Z,58.40
2018-12-12T13:55:27.439Z,66.13
2018-12-12T13:57:56.417Z,63.23
2018-12-12T14:00:25.483Z,66.00
2018-12-12T14:02:54.459Z,64.00
2018-12-12T14:05:23.481Z,68.27
2018-12-12T14:07:52.513Z,62.93
2018-12-12T14:10:21.521Z,62.70
2018-12-12T14:12:50.624Z,67.10
2018-12-12T14:15:19.594Z,66.97
2018-12-12T14:17:48.565Z,66.13
2018-12-12T14:20:17.754Z,59.77
2018-12-12T14:22:46.941Z,62.97
2018-12-12T14:25:16.099Z,60.43
2018-12-12T14:27:45.065Z,65.90
2018-12-12T14:30:14.127Z,62.30
2018-12-12T14:32:43.306Z,67.87
2018-12-12T14:35:12.375Z,65.27
2018-12-12T14:37:41.558Z,71.30
2018-12-12T14:40:10.581Z,67.27
2018-12-12T14:42:39.684Z,64.70
2018-12-12T14:45:08.814Z,67.13
2018-12-12T14:47:37.882Z,71.70
2018-12-12T14:50:06.954Z,64.27
2018-12-12T14:52:36.000Z,65.83
2018-12-12T14:55:04.985Z,71.30
2018-12-12T14:57:33.977Z,77.70
2018-12-12T15:00:03.342Z,75.07
2018-12-12T15:02:32.526Z,81.83
2018-12-12T15:05:01.514Z,81.93
2018-12-12T15:07:30.526Z,80.63
2018-12-12T15:09:59.700Z,90.80
2018-12-12T15:12:28.790Z,81.93
2018-12-12T15:14:57.905Z,164.17
2018-12-12T15:17:26.949Z,167.83
2018-12-12T15:19:55.935Z,317.80
2018-12-12T15:22:25.212Z,261.67
2018-12-12T15:24:54.341Z,583.40
2018-12-12T15:27:23.453Z,625.13
2018-12-12T15:29:52.614Z,511.60
2018-12-12T15:32:21.603Z,703.20
2018-12-12T15:34:50.614Z,753.93
2018-12-12T15:37:19.620Z,715.57
2018-12-12T15:39:48.657Z,766.80
2018-12-12T15:42:17.638Z,272.17
2018-12-12T15:44:46.627Z,576.53
2018-12-12T15:47:15.685Z,561.63
2018-12-12T15:49:44.760Z,642.60
2018-12-12T15:52:13.921Z,782.27
2018-12-12T15:54:42.951Z,541.43
2018-12-12T15:57:12.217Z,668.57
2018-12-12T15:59:41.281Z,477.53
2018-12-12T16:02:10.351Z,293.50
2018-12-12T16:04:39.570Z,346.10
2018-12-12T16:07:08.578Z,288.33
2018-12-12T16:09:37.642Z,121.73
2018-12-12T16:12:06.978Z,660.37
2018-12-12T16:14:36.107Z,427.93
2018-12-12T16:17:05.259Z,496.43
2018-12-12T16:19:34.385Z,364.13
2018-12-12T16:22:03.394Z,280.23
2018-12-12T16:24:32.623Z,178.53
2018-12-12T16:27:01.777Z,453.93
2018-12-12T16:29:30.851Z,281.57
2018-12-12T16:31:59.904Z,375.70
2018-12-12T16:34:28.906Z,304.17
2018-12-12T16:36:58.094Z,111.80
2018-12-12T16:39:27.197Z,136.03
2018-12-12T16:41:56.265Z,180.20
2018-12-12T16:44:25.337Z,183.53
2018-12-12T16:47:12.061Z,157.77
2018-12-12T16:49:41.165Z,163.17
2018-12-12T16:52:10.233Z,172.80
2018-12-12T16:54:39.265Z,187.00
2018-12-12T16:57:08.427Z,191.27
2018-12-12T16:59:37.476Z,181.00
2018-12-12T17:02:06.505Z,150.23
2018-12-12T17:04:35.543Z,171.80
2018-12-12T17:07:04.554Z,186.87
2018-12-12T17:09:34.557Z,193.17
2018-12-12T17:12:03.909Z,86.67
2018-12-12T17:14:33.153Z,121.77
2018-12-12T17:17:02.192Z,192.07
2018-12-12T17:19:31.472Z,89.53
2018-12-12T17:22:00.499Z,51.63
2018-12-12T17:24:29.572Z,103.53
2018-12-12T17:26:58.754Z,93.17
2018-12-12T17:29:27.814Z,134.37
2018-12-12T17:31:56.883Z,91.50
2018-12-12T17:34:25.906Z,149.20
2018-12-12T17:36:55.152Z,68.37
2018-12-12T17:39:24.158Z,110.47
2018-12-12T17:41:53.251Z,44.63
2018-12-12T17:44:22.399Z,131.47
2018-12-12T17:46:51.436Z,78.47
2018-12-12T17:49:20.425Z,87.50
2018-12-12T17:51:49.497Z,65.00
2018-12-12T17:54:18.753Z,83.43
2018-12-12T17:56:48.412Z,94.77
2018-12-12T17:59:18.536Z,87.73
2018-12-12T18:01:47.551Z,66.13
2018-12-12T18:04:39.296Z,88.90
2018-12-12T18:07:08.311Z,109.77
2018-12-12T18:09:37.498Z,75.70
2018-12-12T18:12:06.680Z,62.90
2018-12-12T18:14:35.956Z,113.50
2018-12-12T18:17:07.049Z,103.97
2018-12-12T18:19:36.034Z,127.93
2018-12-12T18:22:05.057Z,194.23
2018-12-12T18:24:36.121Z,107.57
2018-12-12T18:27:05.139Z,93.93
2018-12-12T18:29:34.242Z,57.70
2018-12-12T18:32:05.442Z,62.57
2018-12-12T18:34:55.268Z,100.70
2018-12-12T18:37:24.481Z,75.60
2018-12-12T18:39:53.540Z,63.50
2018-12-12T18:42:24.690Z,56.17
2018-12-12T18:44:55.691Z,74.20
2018-12-12T18:47:24.703Z,64.30
2018-12-12T18:49:53.700Z,63.83
2018-12-12T18:52:24.664Z,62.60
2018-12-12T18:54:53.821Z,62.33
2018-12-12T18:57:24.847Z,51.83
2018-12-12T18:59:54.970Z,59.43
2018-12-12T19:02:25.223Z,73.10
2018-12-12T19:04:54.346Z,61.20
2018-12-12T19:07:23.483Z,67.20
2018-12-12T19:09:52.497Z,76.87
2018-12-12T19:12:21.617Z,84.60
2018-12-12T19:14:56.161Z,82.03
2018-12-12T19:17:25.636Z,64.83
2018-12-12T19:19:54.602Z,66.50
2018-12-12T19:22:23.705Z,46.43
2018-12-12T19:24:52.764Z,56.57
2018-12-12T19:27:21.810Z,53.43
2018-12-12T19:29:50.816Z,47.50
2018-12-12T19:32:19.810Z,46.10
2018-12-12T19:34:49.941Z,50.80
2018-12-12T19:37:19.181Z,47.60
2018-12-12T19:39:48.249Z,47.00
2018-12-12T19:42:17.328Z,47.10
2018-12-12T19:44:46.460Z,52.60
2018-12-12T19:47:15.539Z,54.73
2018-12-12T19:49:44.576Z,57.20
2018-12-12T19:52:13.579Z,56.87
2018-12-12T19:54:42.796Z,56.30
2018-12-12T19:57:11.850Z,60.27
2018-12-12T19:59:40.917Z,59.70
2018-12-12T20:02:10.092Z,55.87
2018-12-12T20:04:40.240Z,61.33
2018-12-12T20:07:09.644Z,58.60
2018-12-12T20:09:38.727Z,58.90
2018-12-12T20:12:07.873Z,61.17
2018-12-12T20:14:36.898Z,62.27
2018-12-12T20:17:05.976Z,52.00
2018-12-12T20:19:35.027Z,54.87
2018-12-12T20:22:04.152Z,51.40
2018-12-12T20:24:33.236Z,47.53
2018-12-12T20:27:02.406Z,54.33
2018-12-12T20:29:32.598Z,52.50
2018-12-12T20:32:01.585Z,55.93
2018-12-12T20:34:30.732Z,56.53
2018-12-12T20:37:00.327Z,49.80
2018-12-12T20:39:29.316Z,56.73
2018-12-12T20:41:58.336Z,54.47
2018-12-12T20:44:27.418Z,54.83
2018-12-12T20:46:56.547Z,48.83
2018-12-12T20:49:25.632Z,50.07
2018-12-12T20:51:54.655Z,54.40
2018-12-12T20:54:23.645Z,51.83
2018-12-12T20:56:52.618Z,58.83
2018-12-12T20:59:21.673Z,58.47
2018-12-12T21:01:51.884Z,62.97
2018-12-12T21:04:20.854Z,64.77
2018-12-12T21:06:50.111Z,63.47
2018-12-12T21:09:19.191Z,61.47
2018-12-12T21:11:48.205Z,61.37
2018-12-12T21:14:17.294Z,56.63
2018-12-12T21:16:46.558Z,54.97
2018-12-12T21:19:15.622Z,55.20
2018-12-12T21:21:44.726Z,53.83
2018-12-12T21:24:13.751Z,50.67
2018-12-12T21:26:42.795Z,54.87
2018-12-12T21:29:11.796Z,63.60
2018-12-12T21:31:40.768Z,55.10
2018-12-12T21:34:09.810Z,55.80
2018-12-12T21:36:38.935Z,59.60
2018-12-12T21:39:08.007Z,57.37
2018-12-12T21:41:39.097Z,58.23
2018-12-12T21:44:08.256Z,50.87
2018-12-12T21:46:37.335Z,48.90
2018-12-12T21:49:06.597Z,49.50
2018-12-12T21:51:35.706Z,56.17
2018-12-12T21:54:04.734Z,56.03
2018-12-12T21:56:33.720Z,59.90
2018-12-12T21:59:03.229Z,66.20
2018-12-12T22:01:32.244Z,66.77
2018-12-12T22:04:01.250Z,70.30
2018-12-12T22:06:30.328Z,77.20
2018-12-12T22:08:59.397Z,67.30
2018-12-12T22:11:28.453Z,69.50
2018-12-12T22:13:57.646Z,72.87
2018-12-12T22:16:26.812Z,61.80
2018-12-12T22:18:55.861Z,68.20
2018-12-12T22:21:25.014Z,64.37
2018-12-12T22:23:54.018Z,64.37
2018-12-12T22:26:23.086Z,57.60
2018-12-12T22:28:52.213Z,56.80
2018-12-12T22:31:21.225Z,53.93
2018-12-12T22:33:50.269Z,52.47
2018-12-12T22:36:19.382Z,47.63
2018-12-12T22:38:48.775Z,45.03
2018-12-12T22:41:18.124Z,47.97
2018-12-12T22:43:47.152Z,59.17
2018-12-12T22:46:16.314Z,59.27
2018-12-12T22:48:45.445Z,51.07
2018-12-12T22:51:14.529Z,88.87
2018-12-12T22:53:43.570Z,56.37
2018-12-12T22:56:12.744Z,52.17
2018-12-12T22:58:41.714Z,45.70
2018-12-12T23:01:13.434Z,45.07
2018-12-12T23:03:44.438Z,47.53
2018-12-12T23:06:20.213Z,45.53
2018-12-12T23:08:45.457Z,46.27
2018-12-12T23:11:14.464Z,44.07
2018-12-12T23:13:43.789Z,48.27
2018-12-12T23:16:12.965Z,42.97
2018-12-12T23:18:42.113Z,47.67
2018-12-12T23:21:11.105Z,46.43
2018-12-12T23:23:40.208Z,44.87
2018-12-12T23:26:09.372Z,44.10
2018-12-12T23:28:38.366Z,47.17
2018-12-12T23:31:07.406Z,41.27
2018-12-12T23:33:36.377Z,39.60
2018-12-12T23:36:05.356Z,42.03
2018-12-12T23:38:34.414Z,42.43
2018-12-12T23:41:03.513Z,50.20
2018-12-12T23:43:32.567Z,44.73
2018-12-12T23:46:01.577Z,42.97
2018-12-12T23:48:30.547Z,38.87
2018-12-12T23:50:59.550Z,46.30
2018-12-12T23:53:28.660Z,41.40
2018-12-12T23:55:57.758Z,40.70
2018-12-12T23:58:26.926Z,48.93
